Airfield :
LOGIN :

Register | Disclaimer

   EN    FR    IT 

 










Legend :    VFR   Marginal VFR   IFR   Intensive IFR   Very Intensive IFR
Visi :
Ceiling :
>= 8 km
>= 3000ft
5 to 8 km
1000 to 3000 ft
1500m to 5 km
500 to 1000 ft
800 to 1500m
200 to 500 ft
< 800m
< 200 ft
Symbols :   Thunderstorms  Fog  Heavy snow  Heavy precipitations  Wind > 20 kt
SIGMETs :     Misc.  Thunderstorms  Icing  Turbulence  Mountain Waves  Volcanic Ashes







- Airport Elevation : 154 ft
- IATA code : SZZ


EPSC - Szczecin Goleniow

CURRENT METAR :
  • 211330Z 30009KT 260V350 CAVOK 23/08 Q1026

EXPIRED METARs :
  • 211300Z 34008KT 310V020 9999 SCT044 BKN049 21/09 Q1026
  • 211230Z 32007KT 290V010 9999 BKN043 BKN049 21/09 Q1026
  • 211200Z 29008KT 250V340 9999 FEW043 21/10 Q1026
  • 211130Z 28009KT 250V330 9999 FEW040 SCT048 21/11 Q1026
  • 211100Z 27009KT 240V300 9999 FEW036 21/11 Q1026

TAF TAF EPSC
Valid from the 21 at 12:00 until the 22 at 12:00 UTC


211130Z 2112/2212 29010KT 9999 SCT045
BECMG 2115/2118 35010KT
BECMG 2119/2122 10005KT
BECMG 2207/2209 16010KT
No reported NOTAMs for that airfield.



MET'MAP, your aeronautical weather chart ! - Copyright ORBIFLY December 2007 - Disclaimer

ORBIFLY MET'MAP TEAM :

Programming & Development : Alexandra Zaïnal
Concept & Development : Baudouin d'Aumeries
Co-Development & Prog : Marc-Olivier Méhu
Technical & hardware support : Manuel Goepfert

Contact : metmap@orbifly.com




SOURCES & CREDITS :

   NOAA